Time;durP1;ratioP1;P1;durP2;ratioP2;P2;SDS_P1;SDS_P2;PMS_P1;PMS_P2;Temp;Humidity;BMP_temperature;BMP_pressure;BME280_temperature;BME280_humidity;BME280_pressure;Samples;Min_cycle;Max_cycle;Signal;HPM_P1;HPM_P2
2023/12/02 00:00:16;;;;;;;20.93;19.07;;;-0.90;99.90;;;;;;5029734;28;20280;-66
2023/12/02 00:02:43;;;;;;;20.73;18.70;;;-0.90;99.90;;;;;;5024568;28;20192;-65
2023/12/02 00:05:10;;;;;;;20.43;18.53;;;-0.90;99.90;;;;;;5018671;28;20200;-67
2023/12/02 00:07:37;;;;;;;23.37;20.93;;;-0.90;99.90;;;;;;5030294;28;20203;-66
2023/12/02 00:10:04;;;;;;;20.77;18.87;;;-0.90;99.90;;;;;;5026132;28;20275;-66
2023/12/02 00:12:31;;;;;;;20.20;18.20;;;-0.90;99.90;;;;;;5028150;28;20416;-66
2023/12/02 00:14:59;;;;;;;22.40;19.70;;;-0.90;99.90;;;;;;5027827;28;20208;-64
2023/12/02 00:17:26;;;;;;;22.40;20.10;;;-0.90;99.90;;;;;;5029768;28;20194;-64
2023/12/02 00:19:53;;;;;;;22.73;19.83;;;-0.90;99.90;;;;;;5028598;28;20275;-62
2023/12/02 00:22:20;;;;;;;20.83;18.67;;;-0.90;99.90;;;;;;5031194;28;20200;-63
2023/12/02 00:24:47;;;;;;;23.17;20.67;;;-0.90;99.90;;;;;;5020361;28;20257;-63
2023/12/02 00:27:15;;;;;;;23.90;20.10;;;-1.00;99.90;;;;;;5040910;28;20204;-63
2023/12/02 00:29:43;;;;;;;23.60;20.77;;;-1.00;99.90;;;;;;5035192;28;20203;-64
2023/12/02 00:32:10;;;;;;;20.77;18.27;;;-0.90;99.90;;;;;;5032237;28;20250;-63
2023/12/02 00:34:37;;;;;;;21.33;19.20;;;-0.90;99.90;;;;;;5035555;28;20197;-63
2023/12/02 00:37:04;;;;;;;21.93;19.43;;;-1.00;99.90;;;;;;5044351;28;20249;-64
2023/12/02 00:39:31;;;;;;;21.27;19.13;;;-1.00;99.90;;;;;;5042847;28;20208;-63
2023/12/02 00:41:58;;;;;;;22.43;20.03;;;-1.00;99.90;;;;;;5034012;28;20193;-64
2023/12/02 00:44:24;;;;;;;26.00;19.87;;;-1.00;99.90;;;;;;5006973;28;20230;-63
2023/12/02 00:46:51;;;;;;;20.97;18.87;;;-1.00;99.90;;;;;;5031654;28;20265;-64
2023/12/02 00:49:18;;;;;;;21.10;19.07;;;-0.90;99.90;;;;;;5030539;28;20216;-63
2023/12/02 00:51:46;;;;;;;21.93;19.17;;;-1.00;99.90;;;;;;5010877;28;20569;-63
2023/12/02 00:54:13;;;;;;;20.93;18.40;;;-1.00;99.90;;;;;;5027868;28;20257;-63
2023/12/02 00:56:40;;;;;;;22.53;19.83;;;-0.90;99.90;;;;;;5031571;28;20653;-65
2023/12/02 00:59:06;;;;;;;21.17;18.93;;;-1.00;99.90;;;;;;5025816;28;20262;-62
2023/12/02 01:01:33;;;;;;;21.33;18.37;;;-1.00;99.90;;;;;;5029079;28;20184;-62
2023/12/02 01:04:00;;;;;;;22.20;19.83;;;-1.00;99.90;;;;;;5031798;28;20200;-61
2023/12/02 01:06:27;;;;;;;21.87;19.57;;;-1.00;99.90;;;;;;5034042;28;20197;-61
2023/12/02 01:08:54;;;;;;;21.27;19.20;;;-1.00;99.90;;;;;;5028441;28;20208;-61
2023/12/02 01:11:21;;;;;;;21.10;18.90;;;-1.00;99.90;;;;;;5049391;28;20231;-62
2023/12/02 01:13:48;;;;;;;21.13;18.87;;;-1.00;99.90;;;;;;5072524;28;20193;-63
2023/12/02 01:16:15;;;;;;;20.63;18.63;;;-1.10;99.90;;;;;;5037597;28;20290;-63
2023/12/02 01:18:42;;;;;;;20.47;18.50;;;-1.00;99.90;;;;;;5066406;28;20702;-64
2023/12/02 01:21:09;;;;;;;21.67;19.40;;;-1.00;99.90;;;;;;5044189;28;20214;-64
2023/12/02 01:23:36;;;;;;;20.97;18.83;;;-1.00;99.90;;;;;;5049355;28;20216;-63
2023/12/02 01:26:03;;;;;;;20.90;19.13;;;-1.00;99.90;;;;;;5019653;28;20935;-67
2023/12/02 01:28:30;;;;;;;21.23;19.00;;;-1.10;99.90;;;;;;5052258;28;20654;-68
2023/12/02 01:30:57;;;;;;;22.17;19.00;;;-1.00;99.90;;;;;;5033442;28;20656;-67
2023/12/02 01:33:24;;;;;;;22.53;18.57;;;-1.00;99.90;;;;;;5052348;28;20580;-68
2023/12/02 01:35:51;;;;;;;19.40;17.50;;;-1.10;99.90;;;;;;5023365;28;20516;-68
2023/12/02 01:38:18;;;;;;;20.10;18.10;;;-1.10;99.90;;;;;;5071640;28;20194;-68
2023/12/02 01:40:45;;;;;;;20.97;18.70;;;-1.10;99.90;;;;;;5069579;28;20191;-68
2023/12/02 01:43:24;;;;;;;19.00;17.13;;;-1.10;99.90;;;;;;5071196;28;20199;-68
2023/12/02 01:45:51;;;;;;;21.13;19.03;;;-1.10;99.90;;;;;;5061199;28;20631;-68
2023/12/02 01:48:20;;;;;;;21.33;19.13;;;-1.10;99.90;;;;;;5049205;28;20190;-68
2023/12/02 01:50:48;;;;;;;20.53;18.27;;;-1.10;99.90;;;;;;5032484;28;20230;-68
2023/12/02 01:53:15;;;;;;;20.07;17.97;;;-1.10;99.90;;;;;;5052929;28;20198;-66
2023/12/02 01:55:43;;;;;;;21.43;19.13;;;-1.10;99.90;;;;;;5047196;28;20274;-67
2023/12/02 01:58:11;;;;;;;19.17;16.97;;;-1.10;99.90;;;;;;5048429;28;20697;-67
2023/12/02 02:00:38;;;;;;;20.70;18.50;;;-1.10;99.90;;;;;;5049951;28;20202;-67
2023/12/02 02:03:05;;;;;;;20.90;18.13;;;-1.10;99.90;;;;;;5066069;28;20644;-67
2023/12/02 02:05:32;;;;;;;19.37;17.63;;;-1.10;99.90;;;;;;5061236;28;20556;-66
2023/12/02 02:07:59;;;;;;;20.53;18.30;;;-1.10;99.90;;;;;;5048984;28;20202;-67
2023/12/02 02:10:26;;;;;;;20.23;18.13;;;-1.10;99.90;;;;;;5047337;28;20215;-67
2023/12/02 02:12:53;;;;;;;19.60;17.57;;;-1.20;99.90;;;;;;5047396;28;20222;-67
2023/12/02 02:15:20;;;;;;;20.77;18.80;;;-1.10;99.90;;;;;;5039180;28;20203;-63
2023/12/02 02:17:47;;;;;;;19.87;18.00;;;-1.20;99.90;;;;;;5065455;28;20247;-62
2023/12/02 02:20:14;;;;;;;20.57;18.53;;;-1.20;99.90;;;;;;5047725;28;20245;-62
2023/12/02 02:22:41;;;;;;;18.77;17.07;;;-1.20;99.90;;;;;;5061055;28;20203;-62
2023/12/02 02:25:08;;;;;;;18.00;16.50;;;-1.20;99.90;;;;;;5047728;28;20241;-63
2023/12/02 02:27:35;;;;;;;18.30;16.50;;;-1.20;99.90;;;;;;5066199;28;20202;-63
2023/12/02 02:30:02;;;;;;;18.33;16.63;;;-1.10;99.90;;;;;;5059098;28;20568;-63
2023/12/02 02:32:29;;;;;;;18.13;16.43;;;-1.20;99.90;;;;;;5054859;28;20241;-62
2023/12/02 02:34:56;;;;;;;18.87;17.13;;;-1.20;99.90;;;;;;5072085;28;20210;-66
2023/12/02 02:37:23;;;;;;;20.37;18.33;;;-1.10;99.90;;;;;;5064634;28;20187;-67
2023/12/02 02:39:50;;;;;;;19.37;17.37;;;-1.20;99.90;;;;;;5055628;28;20193;-70
2023/12/02 02:42:17;;;;;;;17.77;16.13;;;-1.10;99.90;;;;;;5044517;28;20203;-70
2023/12/02 02:44:44;;;;;;;19.07;17.13;;;-1.20;99.90;;;;;;5061257;28;20195;-70
2023/12/02 02:47:11;;;;;;;19.93;17.83;;;-1.20;99.90;;;;;;5058364;28;20252;-70
2023/12/02 02:49:38;;;;;;;17.83;16.20;;;-1.30;99.90;;;;;;5061730;28;20199;-70
2023/12/02 02:52:05;;;;;;;21.50;17.13;;;-1.30;99.90;;;;;;5042520;28;20194;-70
2023/12/02 02:54:32;;;;;;;20.20;16.97;;;-1.20;99.90;;;;;;5046022;28;20191;-69
2023/12/02 02:57:00;;;;;;;18.90;17.27;;;-1.20;99.90;;;;;;5063411;28;20883;-68
2023/12/02 02:59:27;;;;;;;18.33;16.50;;;-1.20;99.90;;;;;;5045322;28;20225;-70
2023/12/02 03:05:54;;;;;;;27.07;18.10;;;-1.10;99.90;;;;;;5062755;28;20178;-70
2023/12/02 03:08:21;;;;;;;24.30;19.03;;;-1.20;99.90;;;;;;5046146;28;20190;-70
2023/12/02 03:10:49;;;;;;;19.13;17.40;;;-1.20;99.90;;;;;;5060506;28;20311;-70
2023/12/02 03:13:17;;;;;;;19.57;17.67;;;-1.20;99.90;;;;;;5042164;28;20195;-70
2023/12/02 03:15:44;;;;;;;19.03;17.27;;;-1.20;99.90;;;;;;5043923;28;20287;-70
2023/12/02 03:18:10;;;;;;;18.73;16.97;;;-1.20;99.90;;;;;;5044853;28;20271;-70
2023/12/02 03:20:38;;;;;;;18.83;17.00;;;-1.20;99.90;;;;;;5046829;28;20187;-70
2023/12/02 03:23:05;;;;;;;17.83;16.30;;;-1.10;99.90;;;;;;5041782;28;20329;-70
2023/12/02 03:25:32;;;;;;;18.27;16.77;;;-1.10;99.90;;;;;;5046455;28;20226;-65
2023/12/02 03:27:59;;;;;;;18.43;16.87;;;-1.20;99.90;;;;;;5061783;28;20286;-64
2023/12/02 03:30:26;;;;;;;18.67;16.80;;;-1.20;99.90;;;;;;5040643;28;20234;-63
2023/12/02 03:32:53;;;;;;;17.97;16.40;;;-1.10;99.90;;;;;;5046749;28;20287;-62
2023/12/02 03:35:20;;;;;;;18.00;16.30;;;-1.10;99.90;;;;;;5073763;28;20190;-62
2023/12/02 03:37:47;;;;;;;17.63;16.13;;;-1.10;99.90;;;;;;5032315;28;20898;-64
2023/12/02 03:40:14;;;;;;;18.37;16.77;;;-1.20;99.90;;;;;;5045382;28;20191;-65
2023/12/02 03:42:41;;;;;;;17.40;15.80;;;-1.20;99.90;;;;;;5046823;28;20248;-64
2023/12/02 03:45:09;;;;;;;17.47;15.87;;;-1.10;99.90;;;;;;5059063;28;20187;-69
2023/12/02 03:47:37;;;;;;;17.47;15.97;;;-1.10;99.90;;;;;;5063125;28;20668;-69
2023/12/02 03:50:04;;;;;;;17.73;16.10;;;-1.10;99.90;;;;;;5041729;28;20580;-67
2023/12/02 03:52:31;;;;;;;18.40;16.70;;;-1.20;99.90;;;;;;5060360;28;20224;-67
2023/12/02 03:54:58;;;;;;;17.37;15.90;;;-1.20;99.90;;;;;;5063770;28;20269;-67
2023/12/02 03:57:25;;;;;;;17.60;16.03;;;-1.30;99.90;;;;;;5050744;28;20223;-67
2023/12/02 03:59:52;;;;;;;17.97;16.33;;;-1.20;99.90;;;;;;5042781;28;20221;-67
2023/12/02 04:02:19;;;;;;;18.50;16.80;;;-1.10;99.90;;;;;;5044245;28;20646;-67
2023/12/02 04:04:46;;;;;;;18.17;16.47;;;-1.10;99.90;;;;;;5061911;28;20199;-67
2023/12/02 04:07:13;;;;;;;18.50;16.63;;;-1.20;99.90;;;;;;5046729;28;20218;-68
2023/12/02 04:09:40;;;;;;;18.60;16.67;;;-1.20;99.90;;;;;;5056323;28;20188;-68
2023/12/02 04:12:08;;;;;;;18.57;16.97;;;-1.20;99.90;;;;;;5009670;28;20753;-68
2023/12/02 04:14:35;;;;;;;18.13;16.53;;;-1.30;99.90;;;;;;5022644;28;20204;-68
2023/12/02 04:17:02;;;;;;;22.00;18.57;;;-1.20;99.90;;;;;;5022482;28;22733;-68
2023/12/02 04:19:29;;;;;;;19.67;17.87;;;-1.20;99.90;;;;;;5019121;28;20205;-68
2023/12/02 04:21:56;;;;;;;19.07;17.30;;;-1.10;99.90;;;;;;5022867;28;20275;-68
2023/12/02 04:24:24;;;;;;;26.47;18.73;;;-1.10;99.90;;;;;;5017443;28;20207;-68
2023/12/02 04:26:51;;;;;;;18.77;16.97;;;-1.20;99.90;;;;;;5024370;28;20204;-67
2023/12/02 04:29:18;;;;;;;19.23;17.43;;;-1.20;99.90;;;;;;5025743;28;20192;-68
2023/12/02 04:31:45;;;;;;;18.73;16.70;;;-1.10;99.90;;;;;;5021236;28;20216;-67
2023/12/02 04:34:12;;;;;;;17.63;16.03;;;-1.20;99.90;;;;;;5021227;28;20298;-68
2023/12/02 04:36:39;;;;;;;18.53;16.73;;;-1.20;99.90;;;;;;5008205;28;20192;-68
2023/12/02 04:39:11;;;;;;;18.37;16.60;;;-1.20;99.90;;;;;;5021614;28;20641;-67
2023/12/02 04:41:38;;;;;;;18.30;16.67;;;-1.20;99.90;;;;;;5020158;28;20318;-68
2023/12/02 04:44:06;;;;;;;17.93;16.07;;;-1.10;99.90;;;;;;5038736;28;20626;-69
2023/12/02 04:46:33;;;;;;;19.43;17.53;;;-1.10;99.90;;;;;;5022117;28;20255;-68
2023/12/02 04:49:00;;;;;;;17.77;16.37;;;-1.20;99.90;;;;;;5026530;28;20258;-68
2023/12/02 04:51:27;;;;;;;18.73;17.07;;;-1.20;99.90;;;;;;5022417;28;20237;-68
2023/12/02 04:53:54;;;;;;;18.23;16.60;;;-1.10;99.90;;;;;;5023544;28;20197;-69
2023/12/02 04:56:21;;;;;;;17.73;16.20;;;-1.10;99.90;;;;;;5010276;28;20208;-68
2023/12/02 04:58:48;;;;;;;18.00;16.30;;;-1.10;99.90;;;;;;5021784;28;20182;-66
2023/12/02 05:01:15;;;;;;;17.23;15.93;;;-1.10;99.90;;;;;;5021192;28;20573;-66
2023/12/02 05:03:42;;;;;;;17.13;15.63;;;-1.10;99.90;;;;;;5022442;28;20653;-66
2023/12/02 05:06:14;;;;;;;17.80;16.17;;;-1.10;99.90;;;;;;5026103;28;20199;-66
2023/12/02 05:08:41;;;;;;;18.30;16.67;;;-1.10;99.90;;;;;;5025324;28;20203;-66
2023/12/02 05:11:08;;;;;;;19.23;17.37;;;-1.10;99.90;;;;;;5035945;28;20638;-66
2023/12/02 05:13:37;;;;;;;18.57;16.77;;;-1.10;99.90;;;;;;5063484;28;20219;-66
2023/12/02 05:16:04;;;;;;;18.63;17.07;;;-1.10;99.90;;;;;;5048429;28;20186;-62
2023/12/02 05:18:31;;;;;;;18.37;16.50;;;-1.10;99.90;;;;;;5048094;28;20249;-61
2023/12/02 05:20:58;;;;;;;19.20;17.53;;;-1.10;99.90;;;;;;5038525;28;20662;-64
2023/12/02 05:23:25;;;;;;;18.37;16.90;;;-1.10;99.90;;;;;;5064801;28;20193;-63
2023/12/02 05:25:52;;;;;;;19.23;17.53;;;-1.10;99.90;;;;;;5062451;28;20211;-64
2023/12/02 05:28:19;;;;;;;20.27;18.30;;;-1.10;99.90;;;;;;5044736;28;20234;-63
2023/12/02 05:30:46;;;;;;;19.77;17.93;;;-1.10;99.90;;;;;;5064336;28;20247;-63
2023/12/02 05:33:13;;;;;;;19.13;17.50;;;-1.10;99.90;;;;;;5062105;28;20202;-63
2023/12/02 05:35:40;;;;;;;19.67;17.80;;;-1.20;99.90;;;;;;5065725;28;20218;-64
2023/12/02 05:38:06;;;;;;;18.47;16.83;;;-1.20;99.90;;;;;;5059391;28;20619;-65
2023/12/02 05:40:33;;;;;;;18.20;16.70;;;-1.20;99.90;;;;;;5061614;28;20282;-63
2023/12/02 05:43:00;;;;;;;17.83;16.20;;;-1.30;99.90;;;;;;5062129;28;20227;-62
2023/12/02 05:45:27;;;;;;;18.57;16.87;;;-1.30;99.90;;;;;;5044231;28;20203;-68
2023/12/02 05:47:54;;;;;;;17.33;16.03;;;-1.30;99.90;;;;;;5045774;28;20198;-68
2023/12/02 05:50:21;;;;;;;19.57;17.47;;;-1.20;99.90;;;;;;5057857;28;20372;-69
2023/12/02 05:52:48;;;;;;;19.17;17.37;;;-1.20;99.90;;;;;;5026748;28;20605;-67
2023/12/02 05:55:15;;;;;;;18.57;16.90;;;-1.20;99.90;;;;;;5061625;28;20277;-68
2023/12/02 05:57:45;;;;;;;18.63;16.90;;;-1.20;99.90;;;;;;5058992;28;20219;-69
2023/12/02 06:00:13;;;;;;;19.67;17.00;;;-1.20;99.90;;;;;;5061913;28;20257;-68
2023/12/02 06:02:40;;;;;;;18.60;16.80;;;-1.30;99.90;;;;;;5044970;28;20241;-68
2023/12/02 06:05:07;;;;;;;17.53;16.03;;;-1.20;99.90;;;;;;5044486;28;20199;-67
2023/12/02 06:07:35;;;;;;;18.33;16.77;;;-1.20;99.90;;;;;;5048567;28;20335;-67
2023/12/02 06:10:02;;;;;;;19.20;17.33;;;-1.20;99.90;;;;;;5060518;28;20202;-67
2023/12/02 06:12:29;;;;;;;17.87;16.23;;;-1.20;99.90;;;;;;5052839;28;20237;-69
2023/12/02 06:14:56;;;;;;;19.37;17.57;;;-1.20;99.90;;;;;;5043484;28;20689;-69
2023/12/02 06:17:23;;;;;;;18.30;16.77;;;-1.20;99.90;;;;;;5062951;28;20195;-69
2023/12/02 06:19:50;;;;;;;18.57;16.93;;;-1.20;99.90;;;;;;5056027;28;20206;-69
2023/12/02 06:22:17;;;;;;;17.43;16.00;;;-1.20;99.90;;;;;;5051177;28;20192;-67
2023/12/02 06:24:44;;;;;;;18.60;16.90;;;-1.20;99.90;;;;;;5061567;28;20555;-67
2023/12/02 06:27:11;;;;;;;19.13;17.40;;;-1.20;99.90;;;;;;5046218;28;20599;-67
2023/12/02 06:29:38;;;;;;;17.67;16.00;;;-1.20;99.90;;;;;;5063526;28;20183;-67
2023/12/02 06:32:05;;;;;;;19.63;17.77;;;-1.20;99.90;;;;;;5031600;28;20215;-67
2023/12/02 06:34:32;;;;;;;18.70;17.00;;;-1.20;99.90;;;;;;5065411;28;20195;-67
2023/12/02 06:36:59;;;;;;;18.97;17.23;;;-1.20;99.90;;;;;;5059652;28;20269;-67
2023/12/02 06:39:27;;;;;;;18.70;17.00;;;-1.30;99.90;;;;;;5056857;28;20729;-67
2023/12/02 06:41:55;;;;;;;18.97;16.97;;;-1.40;99.90;;;;;;5056470;28;20191;-61
2023/12/02 06:44:22;;;;;;;17.30;15.93;;;-1.40;99.90;;;;;;5043070;28;20281;-63
2023/12/02 06:46:49;;;;;;;18.43;16.83;;;-1.50;99.90;;;;;;5044646;28;20781;-63
2023/12/02 06:49:16;;;;;;;18.80;17.00;;;-1.50;99.90;;;;;;5044050;28;20195;-64
2023/12/02 06:51:44;;;;;;;17.93;16.57;;;-1.60;99.90;;;;;;5046878;28;20210;-64
2023/12/02 06:54:11;;;;;;;17.67;16.27;;;-1.70;99.90;;;;;;5045638;28;20247;-63
2023/12/02 06:56:38;;;;;;;19.57;17.57;;;-1.80;99.90;;;;;;5060382;28;20220;-68
2023/12/02 06:59:05;;;;;;;19.40;17.70;;;-1.80;99.90;;;;;;5045066;28;20315;-68
2023/12/02 07:01:32;;;;;;;19.23;17.60;;;-1.90;99.90;;;;;;5043809;28;20195;-68
2023/12/02 07:04:00;;;;;;;20.37;18.37;;;-2.00;99.90;;;;;;5041928;28;20222;-69
2023/12/02 07:06:28;;;;;;;18.40;16.70;;;-2.00;99.90;;;;;;5057909;28;20279;-69
2023/12/02 07:08:55;;;;;;;19.50;17.73;;;-2.10;99.90;;;;;;5023678;28;20217;-69
2023/12/02 07:11:22;;;;;;;19.40;17.70;;;-2.20;99.90;;;;;;5041753;28;20226;-69
2023/12/02 07:13:50;;;;;;;18.63;17.03;;;-2.20;99.90;;;;;;5046475;28;20218;-69
2023/12/02 07:16:17;;;;;;;18.60;17.00;;;-2.30;99.90;;;;;;5031492;28;20635;-64
2023/12/02 07:18:45;;;;;;;18.73;17.10;;;-2.30;99.90;;;;;;5063109;28;20524;-63
2023/12/02 07:21:12;;;;;;;19.13;17.30;;;-2.30;99.90;;;;;;5059648;28;20261;-65
2023/12/02 07:23:39;;;;;;;18.60;17.00;;;-2.30;99.90;;;;;;5055955;28;20213;-63
2023/12/02 07:26:07;;;;;;;20.27;18.30;;;-2.20;99.90;;;;;;5040783;28;20205;-63
2023/12/02 07:28:33;;;;;;;19.77;18.00;;;-2.20;99.90;;;;;;5063523;28;20201;-62
2023/12/02 07:31:00;;;;;;;19.10;17.47;;;-2.10;99.90;;;;;;5053609;28;20211;-63
2023/12/02 07:33:27;;;;;;;19.37;17.60;;;-2.00;99.90;;;;;;5040154;28;20198;-63
2023/12/02 07:35:54;;;;;;;20.17;18.37;;;-2.00;99.90;;;;;;5042197;28;20210;-63
2023/12/02 07:38:21;;;;;;;20.30;18.27;;;-1.90;99.90;;;;;;5061549;28;20206;-63
2023/12/02 07:40:48;;;;;;;19.67;17.77;;;-1.80;99.90;;;;;;5047539;28;20274;-62
2023/12/02 07:43:15;;;;;;;19.03;17.53;;;-1.80;99.90;;;;;;5036222;28;20199;-62
2023/12/02 07:45:42;;;;;;;20.43;18.43;;;-1.80;99.90;;;;;;5047245;28;20214;-63
2023/12/02 07:48:10;;;;;;;20.33;18.23;;;-1.60;99.90;;;;;;5062289;28;20656;-62
2023/12/02 07:50:38;;;;;;;18.97;17.30;;;-1.40;99.90;;;;;;5043770;28;20213;-63
2023/12/02 07:53:05;;;;;;;18.80;17.20;;;-1.20;99.90;;;;;;5045527;28;20235;-63
2023/12/02 07:55:32;;;;;;;18.73;17.10;;;-1.10;99.90;;;;;;5063931;28;20202;-62
2023/12/02 07:58:00;;;;;;;19.60;17.80;;;-0.90;99.90;;;;;;5044611;28;20210;-62
2023/12/02 08:00:27;;;;;;;18.27;16.67;;;-0.70;99.90;;;;;;5041879;28;20215;-62
2023/12/02 08:02:54;;;;;;;18.90;17.30;;;-0.50;99.90;;;;;;5038463;28;20663;-63
2023/12/02 08:05:21;;;;;;;18.37;16.87;;;-0.40;99.90;;;;;;5024764;28;20195;-68
2023/12/02 08:07:51;;;;;;;19.47;17.77;;;-0.20;99.90;;;;;;5061690;28;20191;-69
2023/12/02 08:10:18;;;;;;;19.83;18.17;;;0.00;99.90;;;;;;5061206;28;20187;-64
2023/12/02 08:12:45;;;;;;;18.30;16.77;;;-0.10;99.90;;;;;;5061768;28;20349;-64
2023/12/02 08:15:12;;;;;;;19.73;17.97;;;0.10;99.90;;;;;;5063502;28;20277;-65
2023/12/02 08:17:39;;;;;;;18.77;17.27;;;0.30;99.90;;;;;;5059339;28;20264;-62
2023/12/02 08:20:08;;;;;;;19.70;17.90;;;0.40;99.90;;;;;;5066241;28;20196;-67
2023/12/02 08:22:35;;;;;;;19.93;18.20;;;0.40;99.90;;;;;;5048894;28;20285;-67
2023/12/02 08:25:03;;;;;;;20.13;18.23;;;0.30;99.90;;;;;;5043963;28;20208;-68
2023/12/02 08:27:32;;;;;;;18.53;17.10;;;0.20;99.90;;;;;;5029645;28;20264;-64
2023/12/02 08:29:59;;;;;;;18.57;16.77;;;0.10;99.90;;;;;;5062959;28;20217;-63
2023/12/02 08:32:26;;;;;;;19.03;17.43;;;-0.10;99.90;;;;;;5054731;28;20203;-63
2023/12/02 08:34:53;;;;;;;20.03;18.23;;;-0.10;99.90;;;;;;5071981;28;20547;-63
2023/12/02 08:37:20;;;;;;;18.50;17.03;;;-0.30;99.90;;;;;;5041932;28;20679;-65
2023/12/02 08:39:47;;;;;;;18.97;17.20;;;-0.20;99.90;;;;;;5044296;28;20697;-63
2023/12/02 08:42:14;;;;;;;19.53;17.80;;;-0.10;99.90;;;;;;5033923;28;20344;-64
2023/12/02 08:44:41;;;;;;;21.23;18.77;;;0.00;99.90;;;;;;5063271;28;20237;-64
2023/12/02 08:47:09;;;;;;;18.87;17.17;;;0.10;99.90;;;;;;5046163;28;20290;-63
2023/12/02 08:49:36;;;;;;;19.63;17.90;;;0.30;99.90;;;;;;5061034;28;20302;-64
2023/12/02 08:52:04;;;;;;;19.93;18.03;;;0.40;99.90;;;;;;5050668;28;20704;-63
2023/12/02 08:54:31;;;;;;;19.73;18.03;;;0.30;99.90;;;;;;5060984;28;20209;-67
2023/12/02 08:56:58;;;;;;;19.77;18.00;;;0.30;99.90;;;;;;5064585;28;20226;-64
2023/12/02 08:59:25;;;;;;;18.53;17.17;;;0.40;99.90;;;;;;5072407;28;20635;-65
2023/12/02 09:01:52;;;;;;;19.30;17.80;;;0.40;99.90;;;;;;5072830;28;20235;-65
2023/12/02 09:04:19;;;;;;;18.83;17.43;;;0.30;99.90;;;;;;5075120;28;20220;-64
2023/12/02 09:06:46;;;;;;;19.30;17.70;;;0.40;99.90;;;;;;5056358;28;20289;-63
2023/12/02 09:09:13;;;;;;;19.13;17.53;;;0.80;99.90;;;;;;5054714;28;20751;-64
2023/12/02 09:11:43;;;;;;;19.80;17.67;;;4.20;99.90;;;;;;5052265;28;20246;-65
2023/12/02 09:14:10;;;;;;;19.60;17.90;;;7.60;99.90;;;;;;5050046;28;20210;-65
2023/12/02 09:16:46;;;;;;;20.50;18.80;;;10.50;99.90;;;;;;5071396;28;20210;-74
2023/12/02 09:19:52;;;;;;;21.90;20.17;;;12.50;99.90;;;;;;5065819;28;20214;-71
2023/12/02 09:22:39;;;;;;;22.97;20.97;;;13.40;99.90;;;;;;5070661;28;20202;-73
2023/12/02 09:25:06;;;;;;;24.53;22.33;;;13.10;99.90;;;;;;5069556;28;20256;-69
2023/12/02 09:28:08;;;;;;;23.90;21.90;;;12.50;99.90;;;;;;5034699;28;20268;-73
2023/12/02 09:30:59;;;;;;;23.97;21.97;;;12.40;99.90;;;;;;5070171;28;20182;-70
2023/12/02 09:33:36;;;;;;;24.27;22.17;;;13.00;99.90;;;;;;5034119;28;20245;-69
2023/12/02 09:36:04;;;;;;;24.10;22.10;;;12.70;99.90;;;;;;5057115;28;20187;-71
2023/12/02 09:38:32;;;;;;;25.52;23.23;;;12.40;99.90;;;;;;5066272;28;20428;-70
2023/12/02 09:40:59;;;;;;;24.90;22.70;;;12.60;99.90;;;;;;5069137;28;20591;-71
2023/12/02 09:43:31;;;;;;;24.63;22.52;;;12.90;99.90;;;;;;5073127;28;20330;-66
2023/12/02 09:46:26;;;;;;;24.08;22.10;;;15.00;99.90;;;;;;5053438;28;20191;-70
2023/12/02 09:49:14;;;;;;;27.75;25.13;;;16.30;99.90;;;;;;5080073;28;20562;-71
2023/12/02 09:51:44;;;;;;;25.40;22.98;;;17.30;99.90;;;;;;5064041;28;20307;-71
2023/12/02 09:54:29;;;;;;;30.00;26.75;;;14.70;99.90;;;;;;5057599;28;20245;-70
2023/12/02 09:57:06;;;;;;;26.88;24.25;;;11.10;99.90;;;;;;5061183;28;20278;-67
2023/12/02 10:00:13;;;;;;;26.67;23.97;;;8.70;99.90;;;;;;5037036;28;20579;-67
2023/12/02 10:03:08;;;;;;;26.70;24.10;;;6.80;99.90;;;;;;5043878;28;20245;-67
2023/12/02 10:05:50;;;;;;;26.10;23.80;;;8.40;99.90;;;;;;5053999;28;20555;-68
2023/12/02 10:08:29;;;;;;;24.97;22.90;;;12.20;99.90;;;;;;5066084;28;20253;-69
2023/12/02 10:11:21;;;;;;;27.17;24.57;;;13.80;99.90;;;;;;5052483;28;20241;-66
2023/12/02 10:13:58;;;;;;;26.33;24.03;;;11.30;99.90;;;;;;5060144;28;20214;-68
2023/12/02 10:16:31;;;;;;;26.43;23.93;;;11.50;99.90;;;;;;5051297;28;20659;-66
2023/12/02 10:19:00;;;;;;;25.77;23.50;;;9.50;99.90;;;;;;5049311;28;20248;-68
2023/12/02 10:21:29;;;;;;;30.37;26.73;;;8.50;99.90;;;;;;5054406;28;20577;-66
2023/12/02 10:24:01;;;;;;;25.50;23.17;;;6.20;99.90;;;;;;5058813;28;20198;-69
2023/12/02 10:26:32;;;;;;;26.30;23.97;;;5.80;99.90;;;;;;5064764;28;20244;-62
2023/12/02 10:29:11;;;;;;;47.00;32.17;;;5.40;99.90;;;;;;5083341;28;20202;-63
2023/12/02 10:31:53;;;;;;;27.47;24.77;;;5.80;99.90;;;;;;5057544;28;20209;-63
2023/12/02 10:34:37;;;;;;;26.73;24.23;;;6.90;99.90;;;;;;5058532;28;20444;-63
2023/12/02 10:37:05;;;;;;;28.07;25.47;;;8.80;99.90;;;;;;5060785;28;20557;-63
2023/12/02 10:39:46;;;;;;;25.87;23.50;;;10.10;99.90;;;;;;5044407;28;20187;-63
2023/12/02 10:42:40;;;;;;;26.70;24.30;;;12.60;99.90;;;;;;5066254;28;20692;-65
2023/12/02 10:45:11;;;;;;;28.38;25.70;;;14.30;99.90;;;;;;5030109;28;20207;-75
2023/12/02 10:47:39;;;;;;;30.83;27.63;;;12.80;99.90;;;;;;5052194;28;20261;-70
2023/12/02 10:50:07;;;;;;;26.95;24.52;;;11.20;99.90;;;;;;5056362;28;20687;-70
2023/12/02 10:52:36;;;;;;;25.93;23.63;;;9.20;99.90;;;;;;5068197;28;20207;-69
2023/12/02 10:55:07;;;;;;;27.73;24.93;;;8.10;99.90;;;;;;5068543;28;20232;-70
2023/12/02 10:57:35;;;;;;;27.33;24.53;;;7.10;99.90;;;;;;5081400;28;20215;-70
2023/12/02 11:00:06;;;;;;;26.73;24.23;;;6.10;99.90;;;;;;5047172;28;20206;-64
2023/12/02 11:02:51;;;;;;;27.13;24.23;;;5.70;99.90;;;;;;5070820;28;20245;-66
2023/12/02 11:05:20;;;;;;;26.90;24.27;;;4.50;99.90;;;;;;5056004;28;20197;-62
2023/12/02 11:07:55;;;;;;;26.50;23.93;;;4.00;99.90;;;;;;5077749;28;20285;-65
2023/12/02 11:10:31;;;;;;;25.47;23.17;;;3.90;99.90;;;;;;5080422;28;20202;-64
2023/12/02 11:13:06;;;;;;;25.70;23.13;;;3.50;99.90;;;;;;5054858;28;20286;-64
2023/12/02 11:15:46;;;;;;;25.80;23.17;;;3.90;99.90;;;;;;5077927;28;20192;-64
2023/12/02 11:18:23;;;;;;;36.33;30.57;;;4.00;99.90;;;;;;5062863;28;20182;-63
2023/12/02 11:21:10;;;;;;;29.70;26.70;;;4.20;99.90;;;;;;5072631;28;20301;-64
2023/12/02 11:24:13;;;;;;;25.60;23.20;;;4.60;99.90;;;;;;5067607;28;20302;-69
2023/12/02 11:26:59;;;;;;;25.97;23.37;;;4.90;99.90;;;;;;5050760;28;20603;-68
2023/12/02 11:29:35;;;;;;;27.07;24.37;;;6.90;99.90;;;;;;5069429;28;20187;-69
2023/12/02 11:32:18;;;;;;;27.87;25.07;;;8.10;99.90;;;;;;5048185;28;20259;-69
2023/12/02 11:35:03;;;;;;;26.40;24.00;;;7.50;99.90;;;;;;5062229;28;20191;-69
2023/12/02 11:37:51;;;;;;;25.10;22.67;;;6.60;99.90;;;;;;5070164;28;20290;-69
2023/12/02 11:40:24;;;;;;;25.03;22.67;;;6.10;99.90;;;;;;5051463;28;20617;-69
2023/12/02 11:43:02;;;;;;;26.17;23.57;;;5.80;99.90;;;;;;5058106;28;20225;-69
2023/12/02 11:45:37;;;;;;;25.53;23.13;;;5.70;99.90;;;;;;5077376;28;20734;-69
2023/12/02 11:48:23;;;;;;;25.37;22.97;;;5.80;99.90;;;;;;5058149;28;20374;-69
2023/12/02 11:51:02;;;;;;;24.97;22.57;;;5.60;99.90;;;;;;5048386;28;20225;-69
2023/12/02 11:53:50;;;;;;;24.53;22.37;;;5.40;99.90;;;;;;5055874;28;20258;-69
2023/12/02 11:56:21;;;;;;;27.30;24.80;;;4.90;99.90;;;;;;5089220;28;20363;-69
2023/12/02 11:59:00;;;;;;;27.23;24.70;;;4.80;99.90;;;;;;5083046;28;20205;-69
2023/12/02 12:01:52;;;;;;;25.67;23.00;;;4.50;99.90;;;;;;5060692;28;20201;-69
2023/12/02 12:04:36;;;;;;;23.93;21.63;;;4.90;99.90;;;;;;5078967;28;20206;-69
2023/12/02 12:07:35;;;;;;;24.97;22.57;;;5.50;99.90;;;;;;5076197;28;20195;-69
2023/12/02 12:10:11;;;;;;;24.90;22.60;;;5.60;99.90;;;;;;5018883;28;20661;-68
2023/12/02 12:12:42;;;;;;;28.33;25.33;;;4.60;99.90;;;;;;5068401;28;20279;-68
2023/12/02 12:15:09;;;;;;;25.70;23.23;;;4.00;99.90;;;;;;5068876;28;20201;-69
2023/12/02 12:17:36;;;;;;;26.23;23.60;;;4.20;99.90;;;;;;5083663;28;20269;-69
2023/12/02 12:20:20;;;;;;;24.77;22.47;;;4.60;99.90;;;;;;5073014;28;20223;-68
2023/12/02 12:22:48;;;;;;;26.53;23.83;;;4.90;99.90;;;;;;5053877;28;20199;-69
2023/12/02 12:25:15;;;;;;;28.60;24.83;;;5.20;99.90;;;;;;5073328;28;20230;-68
2023/12/02 12:27:42;;;;;;;29.60;24.70;;;4.70;99.90;;;;;;5048632;28;20233;-68
2023/12/02 12:30:09;;;;;;;26.13;23.63;;;4.30;99.90;;;;;;5081049;28;20203;-68
2023/12/02 12:32:40;;;;;;;27.20;24.30;;;3.60;99.90;;;;;;5083831;28;20287;-69
2023/12/02 12:35:14;;;;;;;26.23;23.47;;;3.20;99.90;;;;;;5073117;28;20647;-69
2023/12/02 12:37:41;;;;;;;26.40;23.73;;;3.40;99.90;;;;;;5069132;28;20191;-68
2023/12/02 12:40:10;;;;;;;28.03;25.33;;;3.60;99.90;;;;;;5075183;28;20191;-69
2023/12/02 12:42:49;;;;;;;27.67;24.97;;;3.20;99.90;;;;;;5063957;28;20229;-68
2023/12/02 12:45:17;;;;;;;26.23;23.80;;;3.10;99.90;;;;;;5053530;28;20655;-64